createdAt,value
2022-08-11T00:01:51.980Z,102475.13
2022-08-11T00:04:20.823Z,102477.13
2022-08-11T00:06:48.869Z,102485.09
2022-08-11T00:09:20.428Z,102481.72
2022-08-11T00:11:49.006Z,102472.72
2022-08-11T00:14:17.915Z,102477.84
2022-08-11T00:16:54.937Z,102489.50
2022-08-11T00:20:12.930Z,102479.97
2022-08-11T00:22:12.824Z,102483.94
2022-08-11T00:24:53.625Z,102480.94
2022-08-11T00:27:32.288Z,102478.44
2022-08-11T00:29:59.898Z,102480.75
2022-08-11T00:32:29.801Z,102473.72
2022-08-11T00:35:51.272Z,102475.50
2022-08-11T00:37:48.548Z,102471.00
2022-08-11T00:40:19.416Z,102474.44
2022-08-11T00:42:54.149Z,102476.75
2022-08-11T00:45:25.117Z,102473.75
2022-08-11T00:48:02.325Z,102470.09
2022-08-11T00:50:35.962Z,102466.22
2022-08-11T00:53:19.053Z,102468.81
2022-08-11T00:56:04.573Z,102473.13
2022-08-11T00:58:51.262Z,102471.75
2022-08-11T01:01:28.096Z,102478.03
2022-08-11T01:04:12.324Z,102473.03
2022-08-11T01:06:49.441Z,102478.19
2022-08-11T01:09:34.809Z,102477.66
2022-08-11T01:12:20.225Z,102475.13
2022-08-11T01:15:17.739Z,102475.44
2022-08-11T01:18:00.145Z,102478.91
2022-08-11T01:20:49.586Z,102472.72
2022-08-11T01:23:36.689Z,102472.19
2022-08-11T01:26:36.236Z,102471.66
2022-08-11T01:29:21.418Z,102471.41
2022-08-11T01:32:06.592Z,102466.13
2022-08-11T01:34:52.866Z,102465.06
2022-08-11T01:37:40.040Z,102467.34
2022-08-11T01:40:23.250Z,102467.97
2022-08-11T01:43:28.703Z,102466.31
2022-08-11T01:45:58.383Z,102463.78
2022-08-11T01:48:34.960Z,102468.91
2022-08-11T01:51:06.185Z,102463.03
2022-08-11T01:53:45.231Z,102456.91
2022-08-11T01:56:17.972Z,102454.38
2022-08-11T01:58:49.586Z,102463.16
2022-08-11T02:01:28.833Z,102469.97
2022-08-11T02:03:59.526Z,102465.78
2022-08-11T02:06:49.149Z,102470.06
2022-08-11T02:09:21.600Z,102462.72
2022-08-11T02:11:51.590Z,102460.75
2022-08-11T02:14:25.334Z,102466.72
2022-08-11T02:16:59.988Z,102452.06
2022-08-11T02:19:53.151Z,102454.34
2022-08-11T02:22:43.849Z,102452.66
2022-08-11T02:25:19.392Z,102447.31
2022-08-11T02:27:54.910Z,102454.97
2022-08-11T02:30:25.473Z,102444.31
2022-08-11T02:33:13.871Z,102439.81
2022-08-11T02:35:47.217Z,102436.16
2022-08-11T02:38:19.127Z,102442.09
2022-08-11T02:40:50.388Z,102442.09
2022-08-11T02:43:30.541Z,102439.91
2022-08-11T02:46:07.553Z,102432.56
2022-08-11T02:49:10.049Z,102435.41
2022-08-11T02:51:42.522Z,102438.22
2022-08-11T02:54:13.611Z,102436.56
2022-08-11T02:56:46.141Z,102439.69
2022-08-11T02:59:36.797Z,102431.53
2022-08-11T03:02:07.897Z,102432.34
2022-08-11T03:04:39.764Z,102434.34
2022-08-11T03:07:28.049Z,102441.97
2022-08-11T03:10:04.320Z,102435.50
2022-08-11T03:12:55.076Z,102434.97
2022-08-11T03:15:42.835Z,102436.09
2022-08-11T03:18:17.049Z,102431.09
2022-08-11T03:20:47.020Z,102428.28
2022-08-11T03:23:19.787Z,102424.63
2022-08-11T03:25:52.104Z,102431.09
2022-08-11T03:28:28.387Z,102427.09
2022-08-11T03:31:02.626Z,102421.78
2022-08-11T03:33:49.515Z,102429.44
2022-08-11T03:36:23.880Z,102426.59
2022-08-11T03:39:02.230Z,102432.25
2022-08-11T03:42:01.665Z,102426.91
2022-08-11T03:44:51.149Z,102421.56
2022-08-11T03:47:24.047Z,102428.06
2022-08-11T03:50:14.508Z,102428.38
2022-08-11T03:52:59.489Z,102430.88
2022-08-11T03:55:32.467Z,102439.06
2022-08-11T03:58:21.242Z,102435.06
2022-08-11T04:01:04.001Z,102430.28
2022-08-11T04:03:49.883Z,102435.06
2022-08-11T04:06:38.405Z,102440.19
2022-08-11T04:09:24.858Z,102426.06
2022-08-11T04:12:35.832Z,102426.06
2022-08-11T04:15:41.969Z,102433.41
2022-08-11T04:18:23.584Z,102420.97
2022-08-11T04:21:00.862Z,102424.09
2022-08-11T04:24:35.833Z,102424.94
2022-08-11T04:26:53.415Z,102427.22
2022-08-11T04:29:35.925Z,102419.91
2022-08-11T04:32:12.162Z,102424.41
2022-08-11T04:34:50.492Z,102428.91
2022-08-11T04:37:35.817Z,102418.44
2022-08-11T04:40:27.838Z,102415.94
2022-08-11T04:43:22.554Z,102418.75
2022-08-11T04:46:10.458Z,102420.72
2022-08-11T04:49:10.148Z,102420.44
2022-08-11T04:52:14.082Z,102421.25
2022-08-11T04:55:12.282Z,102411.66
2022-08-11T04:58:05.030Z,102417.28
2022-08-11T05:00:54.736Z,102419.81
2022-08-11T05:03:41.375Z,102419.16
2022-08-11T05:06:27.163Z,102425.34
2022-08-11T05:09:09.513Z,102427.84
2022-08-11T05:11:46.227Z,102424.72
2022-08-11T05:14:45.601Z,102430.91
2022-08-11T05:17:33.844Z,102430.28
2022-08-11T05:20:19.148Z,102432.19
2022-08-11T05:23:15.227Z,102429.53
2022-08-11T05:26:44.461Z,102441.91
2022-08-11T05:29:19.831Z,102427.97
2022-08-11T05:32:08.843Z,102438.34
2022-08-11T05:34:53.793Z,102439.09
2022-08-11T05:37:27.288Z,102434.47
2022-08-11T05:40:16.158Z,102433.53
2022-08-11T05:43:07.376Z,102434.28
2022-08-11T05:46:02.898Z,102437.00
2022-08-11T05:48:51.449Z,102439.72
2022-08-11T05:51:37.111Z,102450.94
2022-08-11T05:54:28.607Z,102440.38
2022-08-11T05:56:58.654Z,102436.28
2022-08-11T05:59:28.588Z,102441.81
2022-08-11T06:02:01.247Z,102438.88
2022-08-11T06:04:29.303Z,102439.59
2022-08-11T06:06:58.917Z,102433.81
2022-08-11T06:09:28.603Z,102440.19
2022-08-11T06:11:57.712Z,102434.41
2022-08-11T06:14:26.010Z,102433.47
2022-08-11T06:16:59.096Z,102432.16
2022-08-11T06:19:33.556Z,102430.56
2022-08-11T06:22:02.498Z,102427.00
2022-08-11T06:24:32.368Z,102423.69
2022-08-11T06:27:15.549Z,102433.47
2022-08-11T06:29:54.881Z,102422.53
2022-08-11T06:32:27.267Z,102424.44
2022-08-11T06:35:11.292Z,102422.22
2022-08-11T06:37:46.732Z,102429.91
2022-08-11T06:40:24.513Z,102422.94
2022-08-11T06:42:55.213Z,102434.03
2022-08-11T06:45:31.742Z,102428.78
2022-08-11T06:48:02.917Z,102433.81
2022-08-11T06:50:48.633Z,102433.97
2022-08-11T06:53:18.509Z,102427.03
2022-08-11T06:56:04.419Z,102436.69
2022-08-11T06:58:51.100Z,102437.63
2022-08-11T07:01:23.869Z,102434.81
2022-08-11T07:03:58.338Z,102424.97
2022-08-11T07:06:41.471Z,102426.19
2022-08-11T07:09:51.501Z,102425.56
2022-08-11T07:12:51.295Z,102422.44
2022-08-11T07:16:11.262Z,102420.59
2022-08-11T07:18:42.778Z,102422.28
2022-08-11T07:22:01.510Z,102426.47
2022-08-11T07:24:59.704Z,102427.38
2022-08-11T07:27:44.678Z,102432.00
2022-08-11T07:30:12.491Z,102426.94
2022-08-11T07:32:52.386Z,102429.13
2022-08-11T07:35:22.953Z,102430.16
2022-08-11T07:38:01.836Z,102428.63
2022-08-11T07:40:30.440Z,102429.16
2022-08-11T07:42:59.869Z,102430.47
2022-08-11T07:45:45.331Z,102425.59
2022-08-11T07:48:31.184Z,102425.56
2022-08-11T07:51:17.630Z,102425.94
2022-08-11T07:54:03.107Z,102421.72
2022-08-11T07:56:54.422Z,102423.25
2022-08-11T08:00:02.723Z,102417.69
2022-08-11T08:02:46.706Z,102419.19
2022-08-11T08:05:33.512Z,102422.31
2022-08-11T08:08:18.611Z,102414.69
2022-08-11T08:11:05.040Z,102425.34
2022-08-11T08:13:50.816Z,102413.91
2022-08-11T08:16:36.116Z,102418.63
2022-08-11T08:19:03.666Z,102412.00
2022-08-11T08:21:32.192Z,102414.31
2022-08-11T08:23:59.789Z,102423.53
2022-08-11T08:26:51.305Z,102425.22
2022-08-11T08:29:38.180Z,102420.63
2022-08-11T08:32:05.995Z,102421.91
2022-08-11T08:34:33.938Z,102414.56
2022-08-11T08:37:01.828Z,102413.75
2022-08-11T08:39:33.801Z,102411.91
2022-08-11T08:42:05.462Z,102414.91
2022-08-11T08:44:38.790Z,102407.50
2022-08-11T08:47:10.736Z,102410.28
2022-08-11T08:49:41.690Z,102411.88
2022-08-11T08:52:30.754Z,102409.22
2022-08-11T08:55:03.352Z,102413.19
2022-08-11T08:57:34.042Z,102415.28
2022-08-11T09:00:08.701Z,102406.44
2022-08-11T09:02:37.221Z,102404.34
2022-08-11T09:05:05.324Z,102399.69
2022-08-11T09:07:38.763Z,102401.41
2022-08-11T09:10:08.726Z,102397.25
2022-08-11T09:12:39.705Z,102394.19
2022-08-11T09:15:10.319Z,102385.25
2022-08-11T09:17:40.438Z,102389.25
2022-08-11T09:20:09.404Z,102392.50
2022-08-11T09:23:24.265Z,102400.03
2022-08-11T09:26:02.899Z,102399.50
2022-08-11T09:28:31.833Z,102389.84
2022-08-11T09:31:01.291Z,102399.34
2022-08-11T09:33:29.689Z,102398.44
2022-08-11T09:35:58.251Z,102386.66
2022-08-11T09:38:49.416Z,102385.38
2022-08-11T09:41:18.089Z,102395.28
2022-08-11T09:44:12.535Z,102400.38
2022-08-11T09:46:40.262Z,102396.44
2022-08-11T09:49:07.876Z,102393.50
2022-08-11T09:51:35.564Z,102393.41
2022-08-11T09:54:06.468Z,102389.31
2022-08-11T09:56:52.102Z,102395.19
2022-08-11T09:59:22.599Z,102398.03
2022-08-11T10:01:51.289Z,102399.44
2022-08-11T10:04:20.457Z,102395.47
2022-08-11T10:07:01.781Z,102396.22
2022-08-11T10:09:36.217Z,102392.28
2022-08-11T10:12:04.852Z,102380.31
2022-08-11T10:14:52.901Z,102378.94
2022-08-11T10:17:21.744Z,102377.41
2022-08-11T10:20:03.946Z,102386.81
2022-08-11T10:23:02.556Z,102377.63
2022-08-11T10:25:47.451Z,102370.53
2022-08-11T10:28:28.866Z,102372.47
2022-08-11T10:31:22.803Z,102368.63
2022-08-11T10:34:04.360Z,102360.38
2022-08-11T10:36:32.814Z,102371.44
2022-08-11T10:39:01.558Z,102370.53
2022-08-11T10:42:08.352Z,102360.13
2022-08-11T10:44:38.855Z,102363.41
2022-08-11T10:47:26.249Z,102364.56
2022-08-11T10:50:18.269Z,102359.66
2022-08-11T10:53:04.775Z,102362.56
2022-08-11T10:55:50.634Z,102354.06
2022-08-11T10:58:36.580Z,102353.34
2022-08-11T11:01:05.386Z,102351.91
2022-08-11T11:03:35.491Z,102348.72
2022-08-11T11:06:27.870Z,102342.44
2022-08-11T11:09:03.711Z,102343.16
2022-08-11T11:11:52.322Z,102336.28
2022-08-11T11:14:46.323Z,102339.78
2022-08-11T11:17:34.783Z,102343.88
2022-08-11T11:20:04.726Z,102341.81
2022-08-11T11:22:41.583Z,102344.59
2022-08-11T11:25:16.628Z,102327.16
2022-08-11T11:27:52.265Z,102335.59
2022-08-11T11:30:20.207Z,102327.66
2022-08-11T11:32:56.566Z,102332.06
2022-08-11T11:35:32.064Z,102331.31
2022-08-11T11:38:05.185Z,102335.88
2022-08-11T11:40:33.788Z,102339.78
2022-08-11T11:43:02.283Z,102325.31
2022-08-11T11:45:29.887Z,102325.88
2022-08-11T11:48:01.861Z,102319.69
2022-08-11T11:50:32.996Z,102325.66
2022-08-11T11:53:01.596Z,102325.66
2022-08-11T11:55:29.491Z,102332.03
2022-08-11T11:58:18.744Z,102325.03
2022-08-11T12:01:04.861Z,102325.03
2022-08-11T12:03:33.362Z,102327.69
2022-08-11T12:06:03.535Z,102320.00
2022-08-11T12:08:31.513Z,102323.19
2022-08-11T12:11:14.445Z,102316.53
2022-08-11T12:13:42.459Z,102317.09
2022-08-11T12:16:34.371Z,102318.31
2022-08-11T12:19:00.065Z,102313.44
2022-08-11T12:21:29.442Z,102308.53
2022-08-11T12:24:15.772Z,102314.25
2022-08-11T12:27:16.583Z,102306.88
2022-08-11T12:29:50.098Z,102311.75
2022-08-11T12:32:22.322Z,102307.31
2022-08-11T12:34:50.219Z,102307.44
2022-08-11T12:37:23.575Z,102299.25
2022-08-11T12:40:16.552Z,102302.16
2022-08-11T12:43:21.026Z,102296.16
2022-08-11T12:45:53.494Z,102292.31
2022-08-11T12:48:58.937Z,102293.22
2022-08-11T12:52:01.432Z,102291.69
2022-08-11T12:54:42.048Z,102289.81
2022-08-11T12:57:36.239Z,102283.53
2022-08-11T13:00:23.430Z,102282.13
2022-08-11T13:03:09.044Z,102285.31
2022-08-11T13:05:44.362Z,102273.72
2022-08-11T13:08:13.877Z,102280.28
2022-08-11T13:11:00.707Z,102280.00
2022-08-11T13:13:55.649Z,102274.50
2022-08-11T13:16:16.934Z,102271.84
2022-08-11T13:18:45.258Z,102274.66
2022-08-11T13:21:20.211Z,102266.97
2022-08-11T13:23:59.413Z,102271.78
2022-08-11T13:26:43.423Z,102268.56
2022-08-11T13:29:18.970Z,102266.03
2022-08-11T13:31:47.074Z,102262.47
2022-08-11T13:34:15.931Z,102260.16
2022-08-11T13:36:44.209Z,102265.66
2022-08-11T13:39:12.127Z,102267.00
2022-08-11T13:41:44.092Z,102261.75
2022-08-11T13:44:16.312Z,102256.50
2022-08-11T13:46:47.211Z,102251.31
2022-08-11T13:49:17.005Z,102253.47
2022-08-11T13:51:45.180Z,102252.00
2022-08-11T13:54:17.583Z,102249.16
2022-08-11T13:56:47.916Z,102259.53
2022-08-11T13:59:16.304Z,102257.16
2022-08-11T14:02:20.564Z,102253.16
2022-08-11T14:04:37.377Z,102252.34
2022-08-11T14:07:07.661Z,102248.16
2022-08-11T14:09:37.787Z,102231.94
2022-08-11T14:12:26.245Z,102236.41
2022-08-11T14:14:58.503Z,102237.19
2022-08-11T14:17:47.768Z,102232.28
2022-08-11T14:20:38.380Z,102227.78
2022-08-11T14:23:02.048Z,102222.63
2022-08-11T14:26:00.647Z,102223.72
2022-08-11T14:28:33.870Z,102222.31
2022-08-11T14:31:06.200Z,102212.09
2022-08-11T14:34:00.789Z,102209.22
2022-08-11T14:36:22.378Z,102209.66
2022-08-11T14:38:50.723Z,102202.22
2022-08-11T14:41:36.541Z,102212.25
2022-08-11T14:44:23.999Z,102208.72
2022-08-11T14:47:24.585Z,102210.50
2022-08-11T14:50:08.232Z,102210.53
2022-08-11T14:52:44.325Z,102210.50
2022-08-11T14:55:30.372Z,102207.22
2022-08-11T14:57:58.129Z,102203.16
2022-08-11T15:00:27.522Z,102201.84
2022-08-11T15:03:10.961Z,102204.31
2022-08-11T15:05:40.744Z,102207.19
2022-08-11T15:08:09.161Z,102199.84
2022-08-11T15:10:37.228Z,102199.44
2022-08-11T15:13:05.065Z,102192.44
2022-08-11T15:15:51.738Z,102187.91
2022-08-11T15:18:20.707Z,102182.19
2022-08-11T15:21:06.175Z,102185.56
2022-08-11T15:23:51.449Z,102180.22
2022-08-11T15:26:40.790Z,102176.94
2022-08-11T15:29:40.832Z,102188.13
2022-08-11T15:32:29.132Z,102174.50
2022-08-11T15:35:16.185Z,102174.94
2022-08-11T15:37:44.981Z,102177.84
2022-08-11T15:40:34.679Z,102175.00
2022-08-11T15:43:29.024Z,102175.44
2022-08-11T15:46:02.348Z,102170.53
2022-08-11T15:48:38.407Z,102158.63
2022-08-11T15:51:09.217Z,102172.19
2022-08-11T15:53:40.962Z,102165.59
2022-08-11T15:56:09.458Z,102163.53
2022-08-11T15:59:10.490Z,102160.63
2022-08-11T16:02:04.328Z,102170.94
2022-08-11T16:04:34.020Z,102157.31
2022-08-11T16:07:02.812Z,102158.50
2022-08-11T16:09:47.033Z,102162.97
2022-08-11T16:12:17.042Z,102153.88
2022-08-11T16:15:04.093Z,102162.44
2022-08-11T16:17:33.524Z,102161.56
2022-08-11T16:20:03.594Z,102152.47
2022-08-11T16:22:37.486Z,102142.53
2022-08-11T16:27:01.515Z,102147.03
2022-08-11T16:27:56.193Z,102145.31
2022-08-11T16:30:24.541Z,102140.38
2022-08-11T16:32:53.072Z,102146.97
2022-08-11T16:35:47.297Z,102146.13
2022-08-11T16:38:33.249Z,102136.19
2022-08-11T16:41:01.746Z,102135.31
2022-08-11T16:43:47.825Z,102134.03
2022-08-11T16:46:33.714Z,102136.84
2022-08-11T16:49:01.511Z,102132.63
2022-08-11T16:51:30.410Z,102130.88
2022-08-11T16:54:04.281Z,102133.25
2022-08-11T16:56:36.002Z,102134.84
2022-08-11T16:59:15.515Z,102133.97
2022-08-11T17:01:45.777Z,102129.84
2022-08-11T17:04:34.514Z,102126.00
2022-08-11T17:07:51.339Z,102120.16
2022-08-11T17:10:51.777Z,102123.03
2022-08-11T17:13:23.468Z,102114.34
2022-08-11T17:16:12.516Z,102119.16
2022-08-11T17:18:51.148Z,102116.59
2022-08-11T17:21:20.784Z,102119.81
2022-08-11T17:23:50.619Z,102116.03
2022-08-11T17:26:20.680Z,102122.97
2022-08-11T17:28:51.353Z,102110.22
2022-08-11T17:31:38.424Z,102107.69
2022-08-11T17:34:25.009Z,102123.22
2022-08-11T17:36:54.267Z,102112.91
2022-08-11T17:39:25.195Z,102109.19
2022-08-11T17:42:10.599Z,102114.00
2022-08-11T17:44:57.656Z,102102.34
2022-08-11T17:47:42.824Z,102105.13
2022-08-11T17:50:17.694Z,102106.22
2022-08-11T17:53:03.943Z,102103.22
2022-08-11T17:55:53.211Z,102095.31
2022-08-11T17:58:39.237Z,102109.16
2022-08-11T18:01:09.574Z,102106.47
2022-08-11T18:03:39.245Z,102104.19
2022-08-11T18:06:12.361Z,102098.28
2022-08-11T18:09:01.884Z,102106.72
2022-08-11T18:12:11.575Z,102103.25
2022-08-11T18:14:55.229Z,102101.13
2022-08-11T18:17:40.223Z,102115.69
2022-08-11T18:20:25.790Z,102107.81
2022-08-11T18:23:13.064Z,102109.66
2022-08-11T18:26:00.252Z,102112.84
2022-08-11T18:28:51.616Z,102109.88
2022-08-11T18:31:39.203Z,102112.97
2022-08-11T18:34:25.819Z,102120.13
2022-08-11T18:37:20.567Z,102117.44
2022-08-11T18:40:09.267Z,102123.00
2022-08-11T18:42:55.827Z,102117.97
2022-08-11T18:45:46.335Z,102112.06
2022-08-11T18:48:34.156Z,102110.69
2022-08-11T18:51:30.841Z,102116.66
2022-08-11T18:54:23.298Z,102114.44
2022-08-11T18:57:08.206Z,102120.44
2022-08-11T18:59:54.870Z,102128.16
2022-08-11T19:02:49.350Z,102118.56
2022-08-11T19:06:35.889Z,102125.84
2022-08-11T19:08:42.466Z,102132.22
2022-08-11T19:11:28.826Z,102132.91
2022-08-11T19:14:14.091Z,102134.03
2022-08-11T19:17:00.199Z,102126.06
2022-08-11T19:19:47.707Z,102130.31
2022-08-11T19:22:35.072Z,102135.50
2022-08-11T19:25:25.284Z,102140.28
2022-08-11T19:28:11.716Z,102138.91
2022-08-11T19:30:57.935Z,102136.25
2022-08-11T19:34:00.252Z,102138.16
2022-08-11T19:36:50.172Z,102137.63
2022-08-11T19:39:36.368Z,102136.25
2022-08-11T19:42:22.240Z,102145.44
2022-08-11T19:45:08.023Z,102146.47
2022-08-11T19:48:08.179Z,102148.25
2022-08-11T19:51:01.418Z,102146.00
2022-08-11T19:53:51.214Z,102139.75
2022-08-11T19:56:36.244Z,102140.84
2022-08-11T19:59:21.916Z,102149.66
2022-08-11T20:02:14.339Z,102150.28
2022-08-11T20:05:00.139Z,102150.66
2022-08-11T20:07:45.997Z,102155.09
2022-08-11T20:10:34.711Z,102161.03
2022-08-11T20:13:21.567Z,102153.22
2022-08-11T20:16:07.201Z,102165.22
2022-08-11T20:18:52.759Z,102162.66
2022-08-11T20:21:39.015Z,102161.72
2022-08-11T20:24:24.741Z,102157.44
2022-08-11T20:27:18.988Z,102164.53
2022-08-11T20:30:11.110Z,102162.81
2022-08-11T20:32:56.951Z,102158.16
2022-08-11T20:35:42.563Z,102161.63
2022-08-11T20:38:27.885Z,102157.47
2022-08-11T20:41:16.181Z,102154.88
2022-08-11T20:44:05.632Z,102153.94
2022-08-11T20:46:55.106Z,102157.84
2022-08-11T20:49:50.418Z,102164.28
2022-08-11T20:52:40.221Z,102154.28
2022-08-11T20:55:51.550Z,102151.00
2022-08-11T20:58:47.974Z,102167.13
2022-08-11T21:01:41.076Z,102162.84
2022-08-11T21:04:26.653Z,102163.09
2022-08-11T21:07:12.618Z,102164.63
2022-08-11T21:10:12.033Z,102158.00
2022-08-11T21:13:25.234Z,102164.72
2022-08-11T21:16:10.180Z,102167.34
2022-08-11T21:19:10.987Z,102157.72
2022-08-11T21:21:56.652Z,102161.63
2022-08-11T21:24:46.990Z,102161.84
2022-08-11T21:27:35.006Z,102162.91
2022-08-11T21:30:21.085Z,102160.31
2022-08-11T21:33:06.088Z,102158.53
2022-08-11T21:35:52.593Z,102159.22
2022-08-11T21:38:37.960Z,102162.28
2022-08-11T21:41:23.970Z,102159.31
2022-08-11T21:44:09.606Z,102160.41
2022-08-11T21:46:55.628Z,102155.41
2022-08-11T21:49:41.986Z,102158.94
2022-08-11T21:52:28.362Z,102157.97
2022-08-11T21:55:13.534Z,102156.66
2022-08-11T21:57:59.280Z,102162.22
2022-08-11T22:00:45.188Z,102165.44
2022-08-11T22:03:30.917Z,102165.28
2022-08-11T22:06:21.660Z,102160.28
2022-08-11T22:09:08.267Z,102166.31
2022-08-11T22:12:29.082Z,102164.19
2022-08-11T22:14:59.801Z,102157.16
2022-08-11T22:17:44.874Z,102158.34
2022-08-11T22:20:30.561Z,102156.19
2022-08-11T22:23:17.040Z,102165.47
2022-08-11T22:26:11.601Z,102162.13
2022-08-11T22:28:57.001Z,102158.78
2022-08-11T22:31:42.244Z,102163.50
2022-08-11T22:34:27.392Z,102167.88
2022-08-11T22:37:26.747Z,102154.34
2022-08-11T22:40:13.037Z,102163.22
2022-08-11T22:42:59.264Z,102163.13
2022-08-11T22:45:44.306Z,102164.66
2022-08-11T22:48:29.987Z,102170.19
2022-08-11T22:51:16.363Z,102167.34
2022-08-11T22:54:01.817Z,102167.19
2022-08-11T22:56:46.956Z,102165.88
2022-08-11T22:59:33.990Z,102175.09
2022-08-11T23:02:20.227Z,102175.69
2022-08-11T23:05:06.173Z,102173.53
2022-08-11T23:07:52.265Z,102175.03
2022-08-11T23:10:37.626Z,102176.41
2022-08-11T23:13:22.912Z,102176.25
2022-08-11T23:16:09.751Z,102177.75
2022-08-11T23:18:56.373Z,102182.97
2022-08-11T23:21:41.759Z,102175.97
2022-08-11T23:24:27.127Z,102185.19
2022-08-11T23:27:13.044Z,102187.03
2022-08-11T23:29:58.651Z,102187.72
2022-08-11T23:32:47.899Z,102188.91
2022-08-11T23:35:40.134Z,102192.09
2022-08-11T23:38:26.175Z,102193.25
2022-08-11T23:41:11.694Z,102183.44
2022-08-11T23:43:57.042Z,102191.47
2022-08-11T23:46:43.888Z,102182.44
2022-08-11T23:49:30.299Z,102187.97
2022-08-11T23:52:16.325Z,102179.66
2022-08-11T23:55:03.237Z,102179.16
2022-08-11T23:57:49.452Z,102172.13
